KPTN/PTN METAR and TAF weather

Enter ICAO airport designator
Station Type Date Time Source
KPTN METAR 2022/12/05 15:56 UTC NOAA

KPTN 051556Z AUTO 18006KT 10SM FEW012 BKN026 OVC030 22/20 A3008 RMK AO2 SL


Station Type Date Time Source
KPTN Decoded METAR 2022/12/05 15:56 UTC NOAA

Patterson Memorial, LA, United States (KPTN) 29-43N 091-20W
Dec 05, 2022 - 10:56 AM EST / 2022.12.05 1556 UTC
Wind: from the S (180 degrees) at 7 MPH (6 KT):0
Visibility: 10 mile(s):0
Sky conditions: overcast
Temperature: 72.0 F (22.2 C)
Dew Point: 68.0 F (20.0 C)
Relative Humidity: 87%
Pressure (altimeter): 30.08 in. Hg (1018 hPa)
ob: KPTN 051556Z AUTO 18006KT 10SM FEW012 BKN026 OVC030 22/20 A3008 RMK AO2 SLP187 T02220200
cycle: 16

Station Type Date Time Source
KPTN TAF UTC NOAA

Error!

Example: see airport list